sensor_id;sensor_type;location;lat;lon;timestamp;temperature;humidity
22698;DHT22;11516;51.612;7.510;2023-07-13T00:00:27;18.40;99.90
22698;DHT22;11516;51.612;7.510;2023-07-13T00:02:52;18.40;99.90
22698;DHT22;11516;51.612;7.510;2023-07-13T00:05:22;18.40;99.90
22698;DHT22;11516;51.612;7.510;2023-07-13T00:07:49;18.30;99.90
22698;DHT22;11516;51.612;7.510;2023-07-13T00:10:15;18.30;99.90
22698;DHT22;11516;51.612;7.510;2023-07-13T00:12:41;18.30;99.90
22698;DHT22;11516;51.612;7.510;2023-07-13T00:15:22;18.20;99.90
22698;DHT22;11516;51.612;7.510;2023-07-13T00:17:53;18.20;99.90
22698;DHT22;11516;51.612;7.510;2023-07-13T00:20:21;18.20;99.90
22698;DHT22;11516;51.612;7.510;2023-07-13T00:22:51;18.20;99.90
22698;DHT22;11516;51.612;7.510;2023-07-13T00:25:19;18.20;99.90
22698;DHT22;11516;51.612;7.510;2023-07-13T00:27:44;18.20;99.90
22698;DHT22;11516;51.612;7.510;2023-07-13T00:30:11;18.20;99.90
22698;DHT22;11516;51.612;7.510;2023-07-13T00:32:37;18.20;99.90
22698;DHT22;11516;51.612;7.510;2023-07-13T00:35:03;18.20;99.90
22698;DHT22;11516;51.612;7.510;2023-07-13T00:37:30;18.20;99.90
22698;DHT22;11516;51.612;7.510;2023-07-13T00:39:55;18.10;99.90
22698;DHT22;11516;51.612;7.510;2023-07-13T00:42:21;18.00;99.90
22698;DHT22;11516;51.612;7.510;2023-07-13T00:47:39;17.90;99.90
22698;DHT22;11516;51.612;7.510;2023-07-13T00:50:14;17.90;99.90
22698;DHT22;11516;51.612;7.510;2023-07-13T00:52:44;17.80;99.90
22698;DHT22;11516;51.612;7.510;2023-07-13T00:55:11;17.80;99.90
22698;DHT22;11516;51.612;7.510;2023-07-13T00:57:38;17.70;99.90
22698;DHT22;11516;51.612;7.510;2023-07-13T01:00:06;17.70;99.90
22698;DHT22;11516;51.612;7.510;2023-07-13T01:02:39;17.70;99.90
22698;DHT22;11516;51.612;7.510;2023-07-13T01:05:13;17.50;99.90
22698;DHT22;11516;51.612;7.510;2023-07-13T01:07:40;17.60;99.90
22698;DHT22;11516;51.612;7.510;2023-07-13T01:10:08;17.50;99.90
22698;DHT22;11516;51.612;7.510;2023-07-13T01:12:33;17.50;99.90
22698;DHT22;11516;51.612;7.510;2023-07-13T01:15:00;17.40;99.90
22698;DHT22;11516;51.612;7.510;2023-07-13T01:17:28;17.40;99.90
22698;DHT22;11516;51.612;7.510;2023-07-13T01:19:55;17.30;99.90
22698;DHT22;11516;51.612;7.510;2023-07-13T01:22:20;17.40;99.90
22698;DHT22;11516;51.612;7.510;2023-07-13T01:24:51;17.30;99.90
22698;DHT22;11516;51.612;7.510;2023-07-13T01:27:21;17.40;99.90
22698;DHT22;11516;51.612;7.510;2023-07-13T01:29:48;17.20;99.90
22698;DHT22;11516;51.612;7.510;2023-07-13T01:32:23;17.20;99.90
22698;DHT22;11516;51.612;7.510;2023-07-13T01:34:53;17.10;99.90
22698;DHT22;11516;51.612;7.510;2023-07-13T01:37:22;17.10;99.90
22698;DHT22;11516;51.612;7.510;2023-07-13T01:39:49;17.10;99.90
22698;DHT22;11516;51.612;7.510;2023-07-13T01:42:14;17.10;99.90
22698;DHT22;11516;51.612;7.510;2023-07-13T01:44:40;17.10;99.90
22698;DHT22;11516;51.612;7.510;2023-07-13T01:47:06;17.10;99.90
22698;DHT22;11516;51.612;7.510;2023-07-13T01:49:31;17.10;99.90
22698;DHT22;11516;51.612;7.510;2023-07-13T01:51:57;17.10;99.90
22698;DHT22;11516;51.612;7.510;2023-07-13T01:54:23;17.00;99.90
22698;DHT22;11516;51.612;7.510;2023-07-13T01:56:48;17.00;99.90
22698;DHT22;11516;51.612;7.510;2023-07-13T01:59:14;16.90;99.90
22698;DHT22;11516;51.612;7.510;2023-07-13T02:01:40;17.00;99.90
22698;DHT22;11516;51.612;7.510;2023-07-13T02:04:05;16.90;99.90
22698;DHT22;11516;51.612;7.510;2023-07-13T02:06:31;16.80;99.90
22698;DHT22;11516;51.612;7.510;2023-07-13T02:08:57;16.90;99.90
22698;DHT22;11516;51.612;7.510;2023-07-13T02:11:22;16.80;99.90
22698;DHT22;11516;51.612;7.510;2023-07-13T02:13:48;16.70;99.90
22698;DHT22;11516;51.612;7.510;2023-07-13T02:16:14;16.70;99.90
22698;DHT22;11516;51.612;7.510;2023-07-13T02:18:39;16.70;99.90
22698;DHT22;11516;51.612;7.510;2023-07-13T02:21:05;16.70;99.90
22698;DHT22;11516;51.612;7.510;2023-07-13T02:23:30;16.60;99.90
22698;DHT22;11516;51.612;7.510;2023-07-13T02:25:57;16.70;99.90
22698;DHT22;11516;51.612;7.510;2023-07-13T02:28:22;16.60;99.90
22698;DHT22;11516;51.612;7.510;2023-07-13T02:30:48;16.60;99.90
22698;DHT22;11516;51.612;7.510;2023-07-13T02:33:14;16.60;99.90
22698;DHT22;11516;51.612;7.510;2023-07-13T02:35:39;16.50;99.90
22698;DHT22;11516;51.612;7.510;2023-07-13T02:38:05;16.60;99.90
22698;DHT22;11516;51.612;7.510;2023-07-13T02:40:31;16.60;99.90
22698;DHT22;11516;51.612;7.510;2023-07-13T02:42:59;16.60;99.90
22698;DHT22;11516;51.612;7.510;2023-07-13T02:45:25;16.60;99.90
22698;DHT22;11516;51.612;7.510;2023-07-13T02:47:50;16.70;99.90
22698;DHT22;11516;51.612;7.510;2023-07-13T02:50:16;16.70;99.90
22698;DHT22;11516;51.612;7.510;2023-07-13T02:52:42;16.70;99.90
22698;DHT22;11516;51.612;7.510;2023-07-13T02:55:07;16.60;99.90
22698;DHT22;11516;51.612;7.510;2023-07-13T02:57:33;16.60;99.90
22698;DHT22;11516;51.612;7.510;2023-07-13T02:59:59;16.60;99.90
22698;DHT22;11516;51.612;7.510;2023-07-13T03:02:25;16.60;99.90
22698;DHT22;11516;51.612;7.510;2023-07-13T03:04:54;16.60;99.90
22698;DHT22;11516;51.612;7.510;2023-07-13T03:07:19;16.60;99.90
22698;DHT22;11516;51.612;7.510;2023-07-13T03:09:45;16.50;99.90
22698;DHT22;11516;51.612;7.510;2023-07-13T03:12:10;16.50;99.90
22698;DHT22;11516;51.612;7.510;2023-07-13T03:14:36;16.60;99.90
22698;DHT22;11516;51.612;7.510;2023-07-13T03:17:01;16.40;99.90
22698;DHT22;11516;51.612;7.510;2023-07-13T03:19:27;16.40;99.90
22698;DHT22;11516;51.612;7.510;2023-07-13T03:21:53;16.40;99.90
22698;DHT22;11516;51.612;7.510;2023-07-13T03:24:19;16.30;99.90
22698;DHT22;11516;51.612;7.510;2023-07-13T03:26:44;16.40;99.90
22698;DHT22;11516;51.612;7.510;2023-07-13T03:29:10;16.40;99.90
22698;DHT22;11516;51.612;7.510;2023-07-13T03:31:36;16.40;99.90
22698;DHT22;11516;51.612;7.510;2023-07-13T03:34:02;16.30;99.90
22698;DHT22;11516;51.612;7.510;2023-07-13T03:36:29;16.30;99.90
22698;DHT22;11516;51.612;7.510;2023-07-13T03:38:57;16.30;99.90
22698;DHT22;11516;51.612;7.510;2023-07-13T03:41:24;16.30;99.90
22698;DHT22;11516;51.612;7.510;2023-07-13T03:43:50;16.30;99.90
22698;DHT22;11516;51.612;7.510;2023-07-13T03:46:17;16.20;99.90
22698;DHT22;11516;51.612;7.510;2023-07-13T03:48:44;16.20;99.90
22698;DHT22;11516;51.612;7.510;2023-07-13T03:51:11;16.30;99.90
22698;DHT22;11516;51.612;7.510;2023-07-13T03:53:39;16.40;99.90
22698;DHT22;11516;51.612;7.510;2023-07-13T03:56:06;16.30;99.90
22698;DHT22;11516;51.612;7.510;2023-07-13T03:58:34;16.30;99.90
22698;DHT22;11516;51.612;7.510;2023-07-13T04:01:01;16.30;99.90
22698;DHT22;11516;51.612;7.510;2023-07-13T04:03:28;16.30;99.90
22698;DHT22;11516;51.612;7.510;2023-07-13T04:05:57;16.20;99.90
22698;DHT22;11516;51.612;7.510;2023-07-13T04:08:26;16.20;99.90
22698;DHT22;11516;51.612;7.510;2023-07-13T04:10:52;16.10;99.90
22698;DHT22;11516;51.612;7.510;2023-07-13T04:13:17;16.30;99.90
22698;DHT22;11516;51.612;7.510;2023-07-13T04:15:43;16.30;99.90
22698;DHT22;11516;51.612;7.510;2023-07-13T04:18:09;16.20;99.90
22698;DHT22;11516;51.612;7.510;2023-07-13T04:20:34;16.20;99.90
22698;DHT22;11516;51.612;7.510;2023-07-13T04:23:00;16.20;99.90
22698;DHT22;11516;51.612;7.510;2023-07-13T04:25:26;16.20;99.90
22698;DHT22;11516;51.612;7.510;2023-07-13T04:27:52;16.20;99.90
22698;DHT22;11516;51.612;7.510;2023-07-13T04:30:19;16.30;99.90
22698;DHT22;11516;51.612;7.510;2023-07-13T04:32:45;16.40;99.90
22698;DHT22;11516;51.612;7.510;2023-07-13T04:35:10;16.30;99.90
22698;DHT22;11516;51.612;7.510;2023-07-13T04:37:36;16.40;99.90
22698;DHT22;11516;51.612;7.510;2023-07-13T04:40:02;16.40;99.90
22698;DHT22;11516;51.612;7.510;2023-07-13T04:42:29;16.40;99.90
22698;DHT22;11516;51.612;7.510;2023-07-13T04:44:55;16.30;99.90
22698;DHT22;11516;51.612;7.510;2023-07-13T04:47:20;16.40;99.90
22698;DHT22;11516;51.612;7.510;2023-07-13T04:49:46;16.50;99.90
22698;DHT22;11516;51.612;7.510;2023-07-13T04:52:12;16.50;99.90
22698;DHT22;11516;51.612;7.510;2023-07-13T04:54:38;17.00;99.90
22698;DHT22;11516;51.612;7.510;2023-07-13T04:57:04;16.80;99.90
22698;DHT22;11516;51.612;7.510;2023-07-13T04:59:32;16.70;99.90
22698;DHT22;11516;51.612;7.510;2023-07-13T05:01:57;16.80;99.90
22698;DHT22;11516;51.612;7.510;2023-07-13T05:04:23;16.80;99.90
22698;DHT22;11516;51.612;7.510;2023-07-13T05:06:49;16.90;99.90
22698;DHT22;11516;51.612;7.510;2023-07-13T05:09:14;16.90;99.90
22698;DHT22;11516;51.612;7.510;2023-07-13T05:11:40;17.00;99.90
22698;DHT22;11516;51.612;7.510;2023-07-13T05:14:05;17.00;99.90
22698;DHT22;11516;51.612;7.510;2023-07-13T05:16:31;17.10;99.90
22698;DHT22;11516;51.612;7.510;2023-07-13T05:18:57;17.10;99.90
22698;DHT22;11516;51.612;7.510;2023-07-13T05:21:23;17.00;99.90
22698;DHT22;11516;51.612;7.510;2023-07-13T05:23:49;17.00;99.90
22698;DHT22;11516;51.612;7.510;2023-07-13T05:26:15;17.10;99.90
22698;DHT22;11516;51.612;7.510;2023-07-13T05:28:40;17.10;99.90
22698;DHT22;11516;51.612;7.510;2023-07-13T05:31:08;17.20;99.90
22698;DHT22;11516;51.612;7.510;2023-07-13T05:33:34;17.10;99.90
22698;DHT22;11516;51.612;7.510;2023-07-13T05:36:00;17.50;99.90
22698;DHT22;11516;51.612;7.510;2023-07-13T05:38:27;17.30;99.90
22698;DHT22;11516;51.612;7.510;2023-07-13T05:40:54;17.40;99.90
22698;DHT22;11516;51.612;7.510;2023-07-13T05:43:21;17.50;99.90
22698;DHT22;11516;51.612;7.510;2023-07-13T05:45:46;17.60;99.90
22698;DHT22;11516;51.612;7.510;2023-07-13T05:48:12;18.50;99.90
22698;DHT22;11516;51.612;7.510;2023-07-13T05:50:38;17.60;99.90
22698;DHT22;11516;51.612;7.510;2023-07-13T05:53:04;17.60;99.90
22698;DHT22;11516;51.612;7.510;2023-07-13T05:55:30;17.80;99.90
22698;DHT22;11516;51.612;7.510;2023-07-13T05:57:55;17.60;99.90
22698;DHT22;11516;51.612;7.510;2023-07-13T06:00:23;17.60;99.90
22698;DHT22;11516;51.612;7.510;2023-07-13T06:02:49;17.60;99.90
22698;DHT22;11516;51.612;7.510;2023-07-13T06:05:14;17.70;99.90
22698;DHT22;11516;51.612;7.510;2023-07-13T06:07:41;17.60;99.90
22698;DHT22;11516;51.612;7.510;2023-07-13T06:10:06;17.70;99.90
22698;DHT22;11516;51.612;7.510;2023-07-13T06:12:32;17.60;99.90
22698;DHT22;11516;51.612;7.510;2023-07-13T06:14:57;17.70;99.90
22698;DHT22;11516;51.612;7.510;2023-07-13T06:17:23;17.80;99.90
22698;DHT22;11516;51.612;7.510;2023-07-13T06:19:49;17.90;99.90
22698;DHT22;11516;51.612;7.510;2023-07-13T06:22:14;18.00;99.90
22698;DHT22;11516;51.612;7.510;2023-07-13T06:24:40;17.80;99.90
22698;DHT22;11516;51.612;7.510;2023-07-13T06:27:05;17.70;99.90
22698;DHT22;11516;51.612;7.510;2023-07-13T06:29:31;17.60;99.90
22698;DHT22;11516;51.612;7.510;2023-07-13T06:31:56;17.80;99.90
22698;DHT22;11516;51.612;7.510;2023-07-13T06:34:22;17.70;99.90
22698;DHT22;11516;51.612;7.510;2023-07-13T06:36:48;17.80;99.90
22698;DHT22;11516;51.612;7.510;2023-07-13T06:39:14;18.40;99.90
22698;DHT22;11516;51.612;7.510;2023-07-13T06:41:39;18.00;99.90
22698;DHT22;11516;51.612;7.510;2023-07-13T06:44:05;18.00;99.90
22698;DHT22;11516;51.612;7.510;2023-07-13T06:46:31;18.30;99.90
22698;DHT22;11516;51.612;7.510;2023-07-13T06:48:57;18.20;99.90
22698;DHT22;11516;51.612;7.510;2023-07-13T06:51:23;18.20;99.90
22698;DHT22;11516;51.612;7.510;2023-07-13T06:53:48;18.20;99.90
22698;DHT22;11516;51.612;7.510;2023-07-13T06:56:15;18.20;99.90
22698;DHT22;11516;51.612;7.510;2023-07-13T06:58:40;18.20;99.90
22698;DHT22;11516;51.612;7.510;2023-07-13T07:01:06;18.30;99.90
22698;DHT22;11516;51.612;7.510;2023-07-13T07:03:32;18.30;99.90
22698;DHT22;11516;51.612;7.510;2023-07-13T07:06:12;18.40;99.90
22698;DHT22;11516;51.612;7.510;2023-07-13T07:08:38;18.60;99.90
22698;DHT22;11516;51.612;7.510;2023-07-13T07:11:04;18.80;99.90
22698;DHT22;11516;51.612;7.510;2023-07-13T07:13:29;18.90;99.90
22698;DHT22;11516;51.612;7.510;2023-07-13T07:15:55;18.80;99.90
22698;DHT22;11516;51.612;7.510;2023-07-13T07:18:21;18.80;99.90
22698;DHT22;11516;51.612;7.510;2023-07-13T07:20:46;18.70;99.90
22698;DHT22;11516;51.612;7.510;2023-07-13T07:23:12;18.50;99.90
22698;DHT22;11516;51.612;7.510;2023-07-13T07:25:37;18.50;99.90
22698;DHT22;11516;51.612;7.510;2023-07-13T07:28:07;18.40;99.90
22698;DHT22;11516;51.612;7.510;2023-07-13T07:30:33;18.40;99.90
22698;DHT22;11516;51.612;7.510;2023-07-13T07:32:59;18.60;99.90
22698;DHT22;11516;51.612;7.510;2023-07-13T07:35:24;18.60;99.90
22698;DHT22;11516;51.612;7.510;2023-07-13T07:37:50;18.60;99.90
22698;DHT22;11516;51.612;7.510;2023-07-13T07:40:16;18.70;99.90
22698;DHT22;11516;51.612;7.510;2023-07-13T07:42:41;19.00;99.90
22698;DHT22;11516;51.612;7.510;2023-07-13T07:45:07;18.90;99.90
22698;DHT22;11516;51.612;7.510;2023-07-13T07:47:33;18.90;99.90
22698;DHT22;11516;51.612;7.510;2023-07-13T07:49:58;19.10;99.90
22698;DHT22;11516;51.612;7.510;2023-07-13T07:52:24;19.10;99.90
22698;DHT22;11516;51.612;7.510;2023-07-13T07:54:49;19.00;99.90
22698;DHT22;11516;51.612;7.510;2023-07-13T07:57:15;19.10;99.90
22698;DHT22;11516;51.612;7.510;2023-07-13T07:59:40;18.90;99.90
22698;DHT22;11516;51.612;7.510;2023-07-13T08:02:08;19.30;99.90
22698;DHT22;11516;51.612;7.510;2023-07-13T08:04:33;19.30;99.90
22698;DHT22;11516;51.612;7.510;2023-07-13T08:06:59;19.40;99.90
22698;DHT22;11516;51.612;7.510;2023-07-13T08:09:25;19.50;99.90
22698;DHT22;11516;51.612;7.510;2023-07-13T08:11:51;19.40;99.90
22698;DHT22;11516;51.612;7.510;2023-07-13T08:14:17;19.50;99.90
22698;DHT22;11516;51.612;7.510;2023-07-13T08:16:43;19.40;99.90
22698;DHT22;11516;51.612;7.510;2023-07-13T08:19:08;19.50;99.90
22698;DHT22;11516;51.612;7.510;2023-07-13T08:21:34;19.40;99.90
22698;DHT22;11516;51.612;7.510;2023-07-13T08:23:59;19.60;99.90
22698;DHT22;11516;51.612;7.510;2023-07-13T08:26:25;19.90;99.90
22698;DHT22;11516;51.612;7.510;2023-07-13T08:28:51;19.60;99.90
22698;DHT22;11516;51.612;7.510;2023-07-13T08:31:16;19.60;99.90
22698;DHT22;11516;51.612;7.510;2023-07-13T08:33:42;19.60;99.90
22698;DHT22;11516;51.612;7.510;2023-07-13T08:36:07;19.70;99.90
22698;DHT22;11516;51.612;7.510;2023-07-13T08:38:33;20.70;99.90
22698;DHT22;11516;51.612;7.510;2023-07-13T08:40:59;20.00;99.90
22698;DHT22;11516;51.612;7.510;2023-07-13T08:43:35;20.30;99.90
22698;DHT22;11516;51.612;7.510;2023-07-13T08:46:14;20.30;99.90
22698;DHT22;11516;51.612;7.510;2023-07-13T08:48:53;20.30;99.90
22698;DHT22;11516;51.612;7.510;2023-07-13T08:54:00;20.10;99.90
22698;DHT22;11516;51.612;7.510;2023-07-13T08:56:29;20.30;99.90
22698;DHT22;11516;51.612;7.510;2023-07-13T08:59:05;20.30;99.90
22698;DHT22;11516;51.612;7.510;2023-07-13T09:01:55;20.20;99.90
22698;DHT22;11516;51.612;7.510;2023-07-13T09:04:29;20.20;99.90
22698;DHT22;11516;51.612;7.510;2023-07-13T09:07:05;20.50;99.90
22698;DHT22;11516;51.612;7.510;2023-07-13T09:10:35;20.70;99.90
22698;DHT22;11516;51.612;7.510;2023-07-13T09:12:51;20.60;99.90
22698;DHT22;11516;51.612;7.510;2023-07-13T09:15:32;20.70;99.90
22698;DHT22;11516;51.612;7.510;2023-07-13T09:18:04;20.90;99.90
22698;DHT22;11516;51.612;7.510;2023-07-13T09:20:48;21.00;99.90
22698;DHT22;11516;51.612;7.510;2023-07-13T09:23:17;21.20;99.90
22698;DHT22;11516;51.612;7.510;2023-07-13T09:25:47;21.10;99.90
22698;DHT22;11516;51.612;7.510;2023-07-13T09:28:28;21.00;99.90
22698;DHT22;11516;51.612;7.510;2023-07-13T09:31:11;21.00;99.90
22698;DHT22;11516;51.612;7.510;2023-07-13T09:33:39;21.00;99.90
22698;DHT22;11516;51.612;7.510;2023-07-13T09:36:32;21.10;99.90
22698;DHT22;11516;51.612;7.510;2023-07-13T09:39:14;20.90;99.90
22698;DHT22;11516;51.612;7.510;2023-07-13T09:42:03;20.70;99.90
22698;DHT22;11516;51.612;7.510;2023-07-13T09:44:37;20.70;99.90
22698;DHT22;11516;51.612;7.510;2023-07-13T09:47:03;20.70;99.90
22698;DHT22;11516;51.612;7.510;2023-07-13T09:49:40;20.80;99.90
22698;DHT22;11516;51.612;7.510;2023-07-13T09:52:10;21.00;99.90
22698;DHT22;11516;51.612;7.510;2023-07-13T09:54:37;20.80;99.90
22698;DHT22;11516;51.612;7.510;2023-07-13T09:57:12;20.70;99.90
22698;DHT22;11516;51.612;7.510;2023-07-13T09:59:41;20.80;99.90
22698;DHT22;11516;51.612;7.510;2023-07-13T10:02:33;21.00;99.90
22698;DHT22;11516;51.612;7.510;2023-07-13T10:05:03;21.20;99.90
22698;DHT22;11516;51.612;7.510;2023-07-13T10:07:30;21.10;99.90
22698;DHT22;11516;51.612;7.510;2023-07-13T10:09:58;21.30;99.90
22698;DHT22;11516;51.612;7.510;2023-07-13T10:12:27;21.30;99.90
22698;DHT22;11516;51.612;7.510;2023-07-13T10:14:55;21.30;99.90
22698;DHT22;11516;51.612;7.510;2023-07-13T10:17:28;21.50;99.90
22698;DHT22;11516;51.612;7.510;2023-07-13T10:19:57;21.70;99.90
22698;DHT22;11516;51.612;7.510;2023-07-13T10:22:29;21.60;99.90
22698;DHT22;11516;51.612;7.510;2023-07-13T10:24:57;21.80;99.90
22698;DHT22;11516;51.612;7.510;2023-07-13T10:27:37;21.90;99.90
22698;DHT22;11516;51.612;7.510;2023-07-13T10:30:17;21.80;99.90
22698;DHT22;11516;51.612;7.510;2023-07-13T10:32:45;22.00;99.90
22698;DHT22;11516;51.612;7.510;2023-07-13T10:35:14;23.50;99.90
22698;DHT22;11516;51.612;7.510;2023-07-13T10:40:20;22.20;99.90
22698;DHT22;11516;51.612;7.510;2023-07-13T10:42:50;22.30;99.90
22698;DHT22;11516;51.612;7.510;2023-07-13T10:45:22;22.40;99.90
22698;DHT22;11516;51.612;7.510;2023-07-13T10:47:51;22.60;99.90
22698;DHT22;11516;51.612;7.510;2023-07-13T10:50:27;22.90;99.90
22698;DHT22;11516;51.612;7.510;2023-07-13T10:53:01;22.60;99.90
22698;DHT22;11516;51.612;7.510;2023-07-13T10:55:38;22.60;99.90
22698;DHT22;11516;51.612;7.510;2023-07-13T10:58:35;22.50;99.90
22698;DHT22;11516;51.612;7.510;2023-07-13T11:01:15;22.30;99.90
22698;DHT22;11516;51.612;7.510;2023-07-13T11:03:50;22.10;99.90
22698;DHT22;11516;51.612;7.510;2023-07-13T11:11:42;22.40;99.90
22698;DHT22;11516;51.612;7.510;2023-07-13T11:14:27;23.40;99.90
22698;DHT22;11516;51.612;7.510;2023-07-13T11:16:53;24.00;99.90
22698;DHT22;11516;51.612;7.510;2023-07-13T11:22:15;24.90;99.90
22698;DHT22;11516;51.612;7.510;2023-07-13T11:25:02;24.10;99.90
22698;DHT22;11516;51.612;7.510;2023-07-13T11:27:50;23.60;99.90
22698;DHT22;11516;51.612;7.510;2023-07-13T11:32:51;23.60;99.90
22698;DHT22;11516;51.612;7.510;2023-07-13T11:35:26;23.90;99.90
22698;DHT22;11516;51.612;7.510;2023-07-13T11:37:52;24.40;99.90
22698;DHT22;11516;51.612;7.510;2023-07-13T11:40:19;24.10;99.90
22698;DHT22;11516;51.612;7.510;2023-07-13T11:42:46;24.80;99.90
22698;DHT22;11516;51.612;7.510;2023-07-13T11:45:20;25.10;99.90
22698;DHT22;11516;51.612;7.510;2023-07-13T11:47:48;25.40;99.90
22698;DHT22;11516;51.612;7.510;2023-07-13T11:50:20;25.40;99.90
22698;DHT22;11516;51.612;7.510;2023-07-13T11:52:46;25.10;99.90
22698;DHT22;11516;51.612;7.510;2023-07-13T11:55:17;24.90;99.90
22698;DHT22;11516;51.612;7.510;2023-07-13T11:57:54;24.70;99.90
22698;DHT22;11516;51.612;7.510;2023-07-13T12:00:25;25.20;99.90
22698;DHT22;11516;51.612;7.510;2023-07-13T12:02:55;25.40;98.40
22698;DHT22;11516;51.612;7.510;2023-07-13T12:05:21;25.50;98.40
22698;DHT22;11516;51.612;7.510;2023-07-13T12:07:48;25.70;97.30
22698;DHT22;11516;51.612;7.510;2023-07-13T12:10:30;25.80;97.10
22698;DHT22;11516;51.612;7.510;2023-07-13T12:13:03;25.20;96.90
22698;DHT22;11516;51.612;7.510;2023-07-13T12:18:02;24.90;98.10
22698;DHT22;11516;51.612;7.510;2023-07-13T12:20:35;25.20;97.10
22698;DHT22;11516;51.612;7.510;2023-07-13T12:23:05;25.20;96.90
22698;DHT22;11516;51.612;7.510;2023-07-13T12:25:31;24.70;95.50
22698;DHT22;11516;51.612;7.510;2023-07-13T12:27:56;24.80;96.10
22698;DHT22;11516;51.612;7.510;2023-07-13T12:30:29;26.00;95.70
22698;DHT22;11516;51.612;7.510;2023-07-13T12:33:12;26.40;94.50
22698;DHT22;11516;51.612;7.510;2023-07-13T12:35:56;26.60;93.60
22698;DHT22;11516;51.612;7.510;2023-07-13T12:38:24;26.30;93.20
22698;DHT22;11516;51.612;7.510;2023-07-13T12:40:51;25.60;94.40
22698;DHT22;11516;51.612;7.510;2023-07-13T12:43:20;25.70;92.70
22698;DHT22;11516;51.612;7.510;2023-07-13T12:46:05;26.20;91.90
22698;DHT22;11516;51.612;7.510;2023-07-13T12:48:42;26.20;91.40
22698;DHT22;11516;51.612;7.510;2023-07-13T12:51:10;26.60;91.00
22698;DHT22;11516;51.612;7.510;2023-07-13T12:53:40;26.50;89.20
22698;DHT22;11516;51.612;7.510;2023-07-13T12:56:11;26.90;89.70
22698;DHT22;11516;51.612;7.510;2023-07-13T12:58:41;27.30;88.90
22698;DHT22;11516;51.612;7.510;2023-07-13T13:01:10;27.80;86.70
22698;DHT22;11516;51.612;7.510;2023-07-13T13:03:40;27.30;86.50
22698;DHT22;11516;51.612;7.510;2023-07-13T13:08:49;26.30;89.50
22698;DHT22;11516;51.612;7.510;2023-07-13T13:11:16;26.30;90.00
22698;DHT22;11516;51.612;7.510;2023-07-13T13:13:45;27.10;87.80
22698;DHT22;11516;51.612;7.510;2023-07-13T13:16:29;26.90;87.80
22698;DHT22;11516;51.612;7.510;2023-07-13T13:18:59;26.30;89.60
22698;DHT22;11516;51.612;7.510;2023-07-13T13:21:25;25.50;89.80
22698;DHT22;11516;51.612;7.510;2023-07-13T13:23:51;25.60;90.00
22698;DHT22;11516;51.612;7.510;2023-07-13T13:26:18;26.00;90.00
22698;DHT22;11516;51.612;7.510;2023-07-13T13:28:45;26.20;88.60
22698;DHT22;11516;51.612;7.510;2023-07-13T13:31:12;25.50;90.00
22698;DHT22;11516;51.612;7.510;2023-07-13T13:33:39;25.30;90.20
22698;DHT22;11516;51.612;7.510;2023-07-13T13:38:39;24.00;91.30
22698;DHT22;11516;51.612;7.510;2023-07-13T13:41:05;22.70;96.20
22698;DHT22;11516;51.612;7.510;2023-07-13T13:43:32;22.90;99.90
22698;DHT22;11516;51.612;7.510;2023-07-13T13:45:59;21.20;99.90
22698;DHT22;11516;51.612;7.510;2023-07-13T13:48:36;20.10;99.90
22698;DHT22;11516;51.612;7.510;2023-07-13T13:51:13;19.50;99.90
22698;DHT22;11516;51.612;7.510;2023-07-13T13:53:39;18.80;99.90
22698;DHT22;11516;51.612;7.510;2023-07-13T13:56:05;18.60;99.90
22698;DHT22;11516;51.612;7.510;2023-07-13T13:58:30;18.20;99.90
22698;DHT22;11516;51.612;7.510;2023-07-13T14:00:56;17.70;99.90
22698;DHT22;11516;51.612;7.510;2023-07-13T14:03:21;17.70;99.90
22698;DHT22;11516;51.612;7.510;2023-07-13T14:05:48;17.30;99.90
22698;DHT22;11516;51.612;7.510;2023-07-13T14:08:15;17.00;99.90
22698;DHT22;11516;51.612;7.510;2023-07-13T14:10:49;18.20;99.90
22698;DHT22;11516;51.612;7.510;2023-07-13T14:13:17;16.90;99.90
22698;DHT22;11516;51.612;7.510;2023-07-13T14:15:44;16.80;99.90
22698;DHT22;11516;51.612;7.510;2023-07-13T14:18:10;16.90;99.90
22698;DHT22;11516;51.612;7.510;2023-07-13T14:20:35;16.90;99.90
22698;DHT22;11516;51.612;7.510;2023-07-13T14:23:01;17.00;99.90
22698;DHT22;11516;51.612;7.510;2023-07-13T14:25:27;17.20;99.90
22698;DHT22;11516;51.612;7.510;2023-07-13T14:27:57;17.30;99.90
22698;DHT22;11516;51.612;7.510;2023-07-13T14:30:25;17.40;99.90
22698;DHT22;11516;51.612;7.510;2023-07-13T14:32:51;17.40;99.90
22698;DHT22;11516;51.612;7.510;2023-07-13T14:35:20;17.50;99.90
22698;DHT22;11516;51.612;7.510;2023-07-13T14:37:47;17.60;99.90
22698;DHT22;11516;51.612;7.510;2023-07-13T14:40:19;17.80;99.90
22698;DHT22;11516;51.612;7.510;2023-07-13T14:42:47;18.00;99.90
22698;DHT22;11516;51.612;7.510;2023-07-13T14:45:18;18.00;99.90
22698;DHT22;11516;51.612;7.510;2023-07-13T14:47:44;18.10;99.90
22698;DHT22;11516;51.612;7.510;2023-07-13T14:50:23;18.10;99.90
22698;DHT22;11516;51.612;7.510;2023-07-13T14:52:50;18.10;99.90
22698;DHT22;11516;51.612;7.510;2023-07-13T14:55:18;18.20;99.90
22698;DHT22;11516;51.612;7.510;2023-07-13T14:57:44;18.10;99.90
22698;DHT22;11516;51.612;7.510;2023-07-13T15:00:15;18.10;99.90
22698;DHT22;11516;51.612;7.510;2023-07-13T15:02:53;18.10;99.90
22698;DHT22;11516;51.612;7.510;2023-07-13T15:05:25;18.10;99.90
22698;DHT22;11516;51.612;7.510;2023-07-13T15:07:53;18.10;99.90
22698;DHT22;11516;51.612;7.510;2023-07-13T15:10:36;18.00;99.90
22698;DHT22;11516;51.612;7.510;2023-07-13T15:13:22;18.00;99.90
22698;DHT22;11516;51.612;7.510;2023-07-13T15:15:53;18.20;99.90
22698;DHT22;11516;51.612;7.510;2023-07-13T15:18:21;18.50;99.90
22698;DHT22;11516;51.612;7.510;2023-07-13T15:20:48;19.00;99.90
22698;DHT22;11516;51.612;7.510;2023-07-13T15:23:16;19.40;99.90
22698;DHT22;11516;51.612;7.510;2023-07-13T15:25:43;19.70;99.90
22698;DHT22;11516;51.612;7.510;2023-07-13T15:28:09;20.80;99.90
22698;DHT22;11516;51.612;7.510;2023-07-13T15:30:43;21.20;99.90
22698;DHT22;11516;51.612;7.510;2023-07-13T15:33:19;21.50;99.90
22698;DHT22;11516;51.612;7.510;2023-07-13T15:35:46;20.90;99.90
22698;DHT22;11516;51.612;7.510;2023-07-13T15:38:25;20.60;99.90
22698;DHT22;11516;51.612;7.510;2023-07-13T15:40:53;20.50;99.90
22698;DHT22;11516;51.612;7.510;2023-07-13T15:43:19;20.80;99.90
22698;DHT22;11516;51.612;7.510;2023-07-13T15:45:46;20.80;99.90
22698;DHT22;11516;51.612;7.510;2023-07-13T15:50:47;21.30;99.90
22698;DHT22;11516;51.612;7.510;2023-07-13T15:53:29;21.30;99.90
22698;DHT22;11516;51.612;7.510;2023-07-13T15:55:55;21.30;99.90
22698;DHT22;11516;51.612;7.510;2023-07-13T15:58:21;21.40;99.90
22698;DHT22;11516;51.612;7.510;2023-07-13T16:00:46;21.20;99.90
22698;DHT22;11516;51.612;7.510;2023-07-13T16:03:16;21.00;99.90
22698;DHT22;11516;51.612;7.510;2023-07-13T16:05:42;21.10;99.90
22698;DHT22;11516;51.612;7.510;2023-07-13T16:08:20;20.90;99.90